La Belle Poule — FBPU — position and weather

sailwx.info

Track history (hours):
 
Tides and Currents Weather Stations Pressure Air Temp Water Temp Dewpoint Dewpoint Depression Visibility Wind Speed Wind Dir Waves Ship Positions

La Belle Poule (France)

Ship's website: http://www.defense.gouv.fr/english/portail-defense

Last reported at 2017-Sep-22 01:55 UTC. Time now 2017-Sep-24 06:59 UTC.
Position N 48°20' W 004°26'.

Length 38 m; draft 3.6 m.

Type: Sailing vessel. MMSI: 228796000.

Date/timePositionNaut miles runAvg speedWind from/ knotsBaromVisibWave heightAir tempDewpointWater temp
2017-Sep-22 01:55N 48°20' W 004°26'0 0.0
2017-Sep-22 01:22N 48°20' W 004°26'0 0.0
2017-Sep-22 00:52N 48°20' W 004°26'0 0.0
2017-Sep-22 00:04N 48°20' W 004°26'0 0.0
2017-Sep-21 23:57N 48°20' W 004°26'0 0.1
2017-Sep-21 23:31N 48°20' W 004°26'0 0.0
2017-Sep-21 23:01N 48°20' W 004°26'0 0.0
2017-Sep-21 22:31N 48°20' W 004°26'0 0.0
2017-Sep-21 22:00N 48°20' W 004°26'0 0.0
2017-Sep-21 21:28N 48°20' W 004°26'0 0.0
2017-Sep-21 21:00N 48°20' W 004°26'0 0.0
2017-Sep-21 20:28N 48°20' W 004°26'0 0.0
2017-Sep-21 20:00N 48°20' W 004°26'0 0.0
2017-Sep-21 19:28N 48°20' W 004°26'0 0.0
2017-Sep-21 19:01N 48°20' W 004°26'0 0.0
2017-Sep-21 18:30N 48°20' W 004°26'0 0.0
2017-Sep-21 18:00N 48°20' W 004°26'0 0.0
2017-Sep-21 17:30N 48°20' W 004°26'0 0.0
2017-Sep-21 16:57N 48°20' W 004°26'0 0.0
2017-Sep-21 16:31N 48°20' W 004°26'0 0.0
2017-Sep-21 16:00N 48°20' W 004°26'0 0.0
2017-Sep-21 15:31N 48°20' W 004°26'0 0.1
2017-Sep-21 15:00N 48°20' W 004°26'1 2.1
2017-Sep-21 14:31N 48°19' W 004°26'0 1.0
2017-Sep-21 14:00N 48°18' W 004°27'1 2.6
2017-Sep-21 13:30N 48°19' W 004°26'3 5.4
2017-Sep-21 13:00N 48°19' W 004°30'2 3.1
2017-Sep-21 12:28N 48°18' W 004°32'0 0.0
2017-Sep-21 11:58N 48°18' W 004°32'0 0.0
2017-Sep-21 11:28N 48°18' W 004°32'0 0.0
2017-Sep-21 10:46N 48°18' W 004°32'0 0.0
2017-Sep-21 10:28N 48°18' W 004°32'1 1.5
2017-Sep-21 10:00N 48°19' W 004°31'2 3.4
2017-Sep-21 09:30N 48°20' W 004°29'1 2.0
2017-Sep-21 09:00N 48°20' W 004°28'2 3.1
2017-Sep-21 08:30N 48°19' W 004°28'1 2.6
2017-Sep-21 08:00N 48°18' W 004°26'1 2.8
2017-Sep-21 07:30N 48°18' W 004°24'3 5.2
2017-Sep-21 06:58N 48°19' W 004°20'3 2.8
2017-Sep-21 05:53N 48°16' W 004°16'0 0.0
2017-Sep-20 16:53N 48°16' W 004°16'0 0.0
2017-Sep-20 15:58N 48°16' W 004°16'2 1.6
2017-Sep-20 14:48N 48°18' W 004°17'6 7.5
2017-Sep-20 14:00N 48°19' W 004°26'2 3.0
2017-Sep-20 13:30N 48°19' W 004°28'2 3.3
2017-Sep-20 13:00N 48°21' W 004°28'1 2.9
2017-Sep-20 12:30N 48°22' W 004°29'1 1.7
2017-Sep-20 12:00N 48°23' W 004°30'0 0.0
2017-Sep-20 11:30N 48°23' W 004°30'0 0.0
2017-Sep-20 11:00N 48°23' W 004°30'0 0.0
2017-Sep-20 10:27N 48°23' W 004°30'0 0.0
2017-Sep-20 10:00N 48°23' W 004°30'0 0.0
2017-Sep-20 09:30N 48°23' W 004°30'0 0.0
2017-Sep-20 09:00N 48°23' W 004°30'0 0.0
2017-Sep-20 08:30N 48°23' W 004°30'0 0.0
2017-Sep-20 08:00N 48°23' W 004°30'0 0.0
2017-Sep-20 07:30N 48°23' W 004°30'0 0.0
2017-Sep-20 07:00N 48°23' W 004°30'1 1.9
2017-Sep-20 06:30N 48°22' W 004°29'4 8.5
2017-Sep-20 06:00N 48°18' W 004°30'0 0.4
2017-Sep-20 05:30N 48°18' W 004°30'0 0.0
2017-Sep-20 05:00N 48°18' W 004°30'0 0.0
2017-Sep-20 04:30N 48°18' W 004°30'0 0.0
2017-Sep-20 04:00N 48°18' W 004°30'0 0.0
2017-Sep-20 03:30N 48°18' W 004°30'0 0.0
2017-Sep-20 03:00N 48°18' W 004°30'0 0.0
2017-Sep-20 02:30N 48°18' W 004°30'0 0.0
2017-Sep-20 02:00N 48°18' W 004°30'0 0.0
2017-Sep-20 01:30N 48°18' W 004°30'0 0.0
2017-Sep-20 01:00N 48°18' W 004°30'0 0.0
2017-Sep-20 00:30N 48°18' W 004°30'0 0.0
2017-Sep-20 00:00N 48°18' W 004°30'0 0.0
2017-Sep-19 23:30N 48°18' W 004°30'0 0.0
2017-Sep-19 23:00N 48°18' W 004°30'0 0.0
2017-Sep-19 22:30N 48°18' W 004°30'0 0.0
2017-Sep-19 22:00N 48°18' W 004°30'0 0.0
2017-Sep-19 21:30N 48°18' W 004°30'0 0.0
2017-Sep-19 21:00N 48°18' W 004°30'0 0.0
2017-Sep-19 20:30N 48°18' W 004°30'0 0.0
2017-Sep-19 20:00N 48°18' W 004°30'0 0.0
2017-Sep-19 19:30N 48°18' W 004°30'0 0.0
2017-Sep-19 18:57N 48°18' W 004°30'0 0.0
2017-Sep-19 18:27N 48°18' W 004°30'0 0.0
2017-Sep-19 18:00N 48°18' W 004°30'0 0.0
2017-Sep-19 17:30N 48°18' W 004°30'0 0.0
2017-Sep-19 16:54N 48°18' W 004°30'0 0.0
2017-Sep-19 16:30N 48°18' W 004°30'0 0.0
2017-Sep-19 15:54N 48°18' W 004°30'0 0.0
2017-Sep-19 15:21N 48°18' W 004°30'0 0.0
2017-Sep-19 14:59N 48°18' W 004°30'1 1.8
2017-Sep-19 14:30N 48°18' W 004°29'3 5.5
2017-Sep-19 14:00N 48°21' W 004°31'3 5.1
2017-Sep-19 13:30N 48°20' W 004°35'2 4.2
2017-Sep-19 13:00N 48°18' W 004°37'2 3.9
2017-Sep-19 12:30N 48°17' W 004°38'2 3.8
2017-Sep-19 12:00N 48°15' W 004°37'0 0.2
2017-Sep-19 10:54N 48°15' W 004°37'1 1.0
2017-Sep-19 09:59N 48°14' W 004°37'6 2.6
2017-Sep-19 07:53N 48°10' W 004°32'3 3.5
2017-Sep-19 06:53N 48°13' W 004°29'0 0.0
2017-Sep-19 05:53N 48°13' W 004°29'0 0.0
2017-Sep-19 04:53N 48°13' W 004°29'0 0.0
2017-Sep-19 03:53N 48°13' W 004°29'0 0.0
2017-Sep-19 02:53N 48°13' W 004°29'0 0.0
2017-Sep-19 01:53N 48°13' W 004°29'0 0.0
2017-Sep-19 00:53N 48°13' W 004°29'0 0.0
2017-Sep-18 23:53N 48°13' W 004°29'0 0.0
2017-Sep-18 22:53N 48°13' W 004°29'0 0.0
2017-Sep-18 21:53N 48°13' W 004°29'0 0.0
2017-Sep-18 20:53N 48°13' W 004°29'0 0.0
2017-Sep-18 18:53N 48°13' W 004°29'0 0.0
2017-Sep-18 17:53N 48°13' W 004°29'0 0.0
2017-Sep-18 16:38N 48°13' W 004°29'0 0.0
2017-Sep-18 15:38N 48°13' W 004°29'0 0.1
2017-Sep-18 15:06N 48°13' W 004°29'0 3.7
2017-Sep-18 14:58N 48°14' W 004°29'1 1.9
2017-Sep-18 14:27N 48°13' W 004°29'1 2.2
2017-Sep-18 14:00N 48°12' W 004°28'1 2.3
2017-Sep-18 13:30N 48°11' W 004°29'4 5.8
2017-Sep-18 12:48N 48°10' W 004°35'2 5.2
2017-Sep-18 12:20N 48°12' W 004°37'1 4.6
2017-Sep-18 12:00N 48°13' W 004°38'2 4.1
2017-Sep-18 11:30N 48°15' W 004°39'2 4.4
2017-Sep-18 11:00N 48°17' W 004°39'1 2.8
2017-Sep-18 10:29N 48°18' W 004°37'1 2.0
2017-Sep-18 10:00N 48°19' W 004°37'1 2.9
2017-Sep-18 09:30N 48°20' W 004°35'4 7.1
2017-Sep-18 09:00N 48°22' W 004°31'1 2.8
2017-Sep-18 08:30N 48°23' W 004°30'0 0.0
2017-Sep-18 08:00N 48°23' W 004°30'0 0.0
2017-Sep-18 07:30N 48°23' W 004°30'0 0.0
2017-Sep-18 07:00N 48°23' W 004°30'0 0.0
2017-Sep-18 06:30N 48°23' W 004°30'0 0.0
2017-Sep-18 06:00N 48°23' W 004°30'0 0.0
2017-Sep-16 09:34N 48°23' W 004°30'0 0.1
2017-Sep-16 09:28N 48°23' W 004°30'1 2.2
2017-Sep-16 09:00N 48°22' W 004°29'2 4.9
2017-Sep-16 08:30N 48°21' W 004°32'3 5.0
2017-Sep-16 08:00N 48°19' W 004°35'2 4.8
2017-Sep-16 07:30N 48°17' W 004°37'2 3.6
2017-Sep-16 07:00N 48°18' W 004°35'1 1.8
2017-Sep-16 06:30N 48°17' W 004°36'1 1.1
2017-Sep-16 05:59N 48°17' W 004°35'0 0.0
2017-Sep-16 05:29N 48°17' W 004°35'0 0.0
2017-Sep-16 04:59N 48°17' W 004°35'0 0.0
2017-Sep-16 04:29N 48°17' W 004°35'0 0.0
2017-Sep-16 03:59N 48°17' W 004°35'0 0.0
2017-Sep-16 03:29N 48°17' W 004°35'0 0.0
2017-Sep-16 03:00N 48°17' W 004°35'0 0.0
2017-Sep-16 02:29N 48°17' W 004°35'0 0.0
2017-Sep-16 01:59N 48°17' W 004°35'0 0.0
2017-Sep-16 01:29N 48°17' W 004°35'0 0.0
2017-Sep-16 00:59N 48°17' W 004°35'0 0.0
2017-Sep-16 00:29N 48°17' W 004°35'0 0.0
2017-Sep-15 23:59N 48°17' W 004°35'0 0.0
2017-Sep-15 23:29N 48°17' W 004°35'0 0.0
2017-Sep-15 22:59N 48°17' W 004°35'0 0.0
2017-Sep-15 22:29N 48°17' W 004°35'0 0.0
2017-Sep-15 21:59N 48°17' W 004°35'0 0.0
2017-Sep-15 21:29N 48°17' W 004°35'0 0.0
2017-Sep-15 20:59N 48°17' W 004°35'0 0.0
2017-Sep-15 20:29N 48°17' W 004°35'0 0.0
2017-Sep-15 19:59N 48°17' W 004°35'0 0.0
2017-Sep-15 19:29N 48°17' W 004°35'0 0.0
2017-Sep-15 18:59N 48°17' W 004°35'0 0.0
2017-Sep-15 18:29N 48°17' W 004°35'0 0.0
2017-Sep-15 17:59N 48°17' W 004°35'0 0.0
2017-Sep-15 17:29N 48°17' W 004°35'0 0.0
2017-Sep-15 16:59N 48°17' W 004°35'0 0.0
2017-Sep-15 16:29N 48°17' W 004°35'0 0.0
2017-Sep-15 15:59N 48°17' W 004°35'0 0.6
2017-Sep-15 15:28N 48°17' W 004°35'2 5.3
2017-Sep-15 15:00N 48°20' W 004°35'3 6.4
2017-Sep-15 14:30N 48°21' W 004°31'1 2.8
2017-Sep-15 14:00N 48°20' W 004°31'2 3.8
2017-Sep-15 13:31N 48°20' W 004°28'1 2.4
2017-Sep-15 13:00N 48°19' W 004°27'1 1.6
2017-Sep-15 12:30N 48°19' W 004°27'1 2.4
2017-Sep-15 12:00N 48°19' W 004°25'1 2.3
2017-Sep-15 11:30N 48°18' W 004°25'0 0.2
2017-Sep-15 11:00N 48°18' W 004°25'2 3.0
2017-Sep-15 10:30N 48°19' W 004°26'4 8.1
2017-Sep-15 10:00N 48°22' W 004°29'1 1.5
2017-Sep-15 09:29N 48°23' W 004°30'0 0.0
2017-Sep-15 08:59N 48°23' W 004°30'0 0.0
2017-Sep-15 08:29N 48°23' W 004°30'0 0.0
2017-Sep-15 07:59N 48°23' W 004°30'0 0.0
2017-Sep-15 07:29N 48°23' W 004°30'0 0.0
2017-Sep-15 06:59N 48°23' W 004°30'2 3.4
2017-Sep-15 06:30N 48°21' W 004°29'3 5.2
2017-Sep-15 05:59N 48°20' W 004°26'0 0.1
2017-Sep-15 04:33N 48°20' W 004°26'0 0.1
2017-Sep-15 04:30N 48°20' W 004°26'0 0.0
2017-Sep-15 03:48N 48°20' W 004°26'0 0.0
2017-Sep-15 03:21N 48°20' W 004°26'0 0.0
2017-Sep-15 03:00N 48°20' W 004°26'0 0.0
2017-Sep-15 00:48N 48°20' W 004°26'0 0.0
2017-Sep-14 23:48N 48°20' W 004°26'0 0.0
2017-Sep-14 19:48N 48°20' W 004°26'0 0.0
2017-Sep-14 16:48N 48°20' W 004°26'0 0.0
2017-Sep-14 15:39N 48°20' W 004°26'0 0.2
2017-Sep-14 15:31N 48°20' W 004°26'2 3.8
2017-Sep-14 15:00N 48°19' W 004°29'1 1.9
2017-Sep-14 14:30N 48°20' W 004°30'1 1.3
2017-Sep-14 14:00N 48°19' W 004°30'1 1.9
2017-Sep-14 13:30N 48°19' W 004°29'1 2.4
2017-Sep-14 13:00N 48°19' W 004°27'1 0.3
2017-Sep-14 10:01N 48°20' W 004°26'0 0.6
2017-Sep-14 09:51N 48°20' W 004°26'2 5.8
2017-Sep-14 09:30N 48°18' W 004°28'1 1.5
2017-Sep-14 09:00N 48°19' W 004°27'3 5.4
2017-Sep-14 08:30N 48°21' W 004°30'3 6.3
2017-Sep-14 08:00N 48°20' W 004°34'3 6.1
2017-Sep-14 07:30N 48°17' W 004°35'0 0.3
2017-Sep-14 07:00N 48°17' W 004°35'0 0.0
2017-Sep-14 06:30N 48°17' W 004°35'0 0.0
2017-Sep-14 06:00N 48°17' W 004°35'0 0.0
2017-Sep-14 05:30N 48°17' W 004°35'0 0.0
2017-Sep-14 05:00N 48°17' W 004°35'0 0.0
2017-Sep-14 04:30N 48°17' W 004°35'0 0.0
2017-Sep-14 03:57N 48°17' W 004°35'0 0.0
2017-Sep-14 03:21N 48°17' W 004°35'0 0.0
2017-Sep-14 03:00N 48°17' W 004°35'0 0.0
2017-Sep-14 02:27N 48°17' W 004°35'0 0.0
2017-Sep-14 02:00N 48°17' W 004°35'0 0.0
2017-Sep-14 01:30N 48°17' W 004°35'0 0.0
2017-Sep-14 01:00N 48°17' W 004°35'0 0.0
2017-Sep-14 00:27N 48°17' W 004°35'0 0.0
2017-Sep-13 23:57N 48°17' W 004°35'0 0.0
2017-Sep-13 23:30N 48°17' W 004°35'0 0.0
2017-Sep-13 23:00N 48°17' W 004°35'0 0.0
2017-Sep-13 22:30N 48°17' W 004°35'0 0.0
2017-Sep-13 22:00N 48°17' W 004°35'0 0.0
2017-Sep-13 21:24N 48°17' W 004°35'0 0.0
2017-Sep-13 21:00N 48°17' W 004°35'0 0.0
2017-Sep-13 20:30N 48°17' W 004°35'0 0.0
2017-Sep-13 20:00N 48°17' W 004°35'0 0.0
2017-Sep-13 19:30N 48°17' W 004°35'0 0.0
2017-Sep-13 18:54N 48°17' W 004°35'0 0.0
2017-Sep-13 18:30N 48°17' W 004°35'0 0.0
2017-Sep-13 17:57N 48°17' W 004°35'0 0.0
2017-Sep-13 17:30N 48°17' W 004°35'0 0.0
2017-Sep-13 17:00N 48°17' W 004°35'0 0.0
2017-Sep-13 16:30N 48°17' W 004°35'0 0.0
2017-Sep-13 15:57N 48°17' W 004°35'0 0.0
2017-Sep-13 15:30N 48°17' W 004°35'0 0.6
2017-Sep-13 14:59N 48°17' W 004°35'3 6.5
2017-Sep-13 14:30N 48°20' W 004°34'4 7.0
2017-Sep-13 14:01N 48°20' W 004°29'0 0.9
2017-Sep-13 13:30N 48°20' W 004°28'1 1.8
2017-Sep-13 13:00N 48°20' W 004°30'3 4.7
2017-Sep-13 12:28N 48°23' W 004°29'0 0.9
2017-Sep-13 11:59N 48°23' W 004°30'0 0.0
2017-Sep-13 11:29N 48°23' W 004°30'0 0.0
2017-Sep-12 14:06N 48°23' W 004°30'0 0.0
2017-Sep-12 14:00N 48°23' W 004°30'0 0.0
2017-Sep-12 13:30N 48°23' W 004°30'0 0.0
2017-Sep-12 13:00N 48°23' W 004°30'1 1.8
2017-Sep-12 12:30N 48°22' W 004°29'2 3.2
2017-Sep-12 12:00N 48°20' W 004°29'0 0.4
2017-Sep-12 11:30N 48°21' W 004°29'1 1.6
2017-Sep-12 11:00N 48°21' W 004°29'2 3.6
2017-Sep-12 10:30N 48°20' W 004°28'2 5.0
2017-Sep-12 10:00N 48°18' W 004°26'1 2.7
2017-Sep-12 09:30N 48°19' W 004°25'2 3.1
2017-Sep-12 08:58N 48°18' W 004°23'1 1.3
2017-Sep-12 08:29N 48°18' W 004°23'4 5.1
2017-Sep-12 07:43N 48°18' W 004°17'  
Track history (hours):
 
Tides and Currents Weather Stations Pressure Air Temp Water Temp Dewpoint Dewpoint Depression Visibility Wind Speed Wind Dir Waves Ship Positions

La Belle Poule (France)

Ship's website: http://www.defense.gouv.fr/english/portail-defense

Last reported at 2017-Sep-22 01:55 UTC. Time now 2017-Sep-24 06:59 UTC.
Position N 48°20' W 004°26'.

Length 38 m; draft 3.6 m.

Type: Sailing vessel. MMSI: 228796000.

Date/timePositionNaut miles runAvg speedWind from/ knotsBaromVisibWave heightAir tempDewpointWater temp
2017-Sep-22 01:55N 48°20' W 004°26'0 0.0
2017-Sep-22 01:22N 48°20' W 004°26'0 0.0
2017-Sep-22 00:52N 48°20' W 004°26'0 0.0
2017-Sep-22 00:04N 48°20' W 004°26'0 0.0
2017-Sep-21 23:57N 48°20' W 004°26'0 0.1
2017-Sep-21 23:31N 48°20' W 004°26'0 0.0
2017-Sep-21 23:01N 48°20' W 004°26'0 0.0
2017-Sep-21 22:31N 48°20' W 004°26'0 0.0
2017-Sep-21 22:00N 48°20' W 004°26'0 0.0
2017-Sep-21 21:28N 48°20' W 004°26'0 0.0
2017-Sep-21 21:00N 48°20' W 004°26'0 0.0
2017-Sep-21 20:28N 48°20' W 004°26'0 0.0
2017-Sep-21 20:00N 48°20' W 004°26'0 0.0
2017-Sep-21 19:28N 48°20' W 004°26'0 0.0
2017-Sep-21 19:01N 48°20' W 004°26'0 0.0
2017-Sep-21 18:30N 48°20' W 004°26'0 0.0
2017-Sep-21 18:00N 48°20' W 004°26'0 0.0
2017-Sep-21 17:30N 48°20' W 004°26'0 0.0
2017-Sep-21 16:57N 48°20' W 004°26'0 0.0
2017-Sep-21 16:31N 48°20' W 004°26'0 0.0
2017-Sep-21 16:00N 48°20' W 004°26'0 0.0
2017-Sep-21 15:31N 48°20' W 004°26'0 0.1
2017-Sep-21 15:00N 48°20' W 004°26'1 2.1
2017-Sep-21 14:31N 48°19' W 004°26'0 1.0
2017-Sep-21 14:00N 48°18' W 004°27'1 2.6
2017-Sep-21 13:30N 48°19' W 004°26'3 5.4
2017-Sep-21 13:00N 48°19' W 004°30'2 3.1
2017-Sep-21 12:28N 48°18' W 004°32'0 0.0
2017-Sep-21 11:58N 48°18' W 004°32'0 0.0
2017-Sep-21 11:28N 48°18' W 004°32'0 0.0
2017-Sep-21 10:46N 48°18' W 004°32'0 0.0
2017-Sep-21 10:28N 48°18' W 004°32'1 1.5
2017-Sep-21 10:00N 48°19' W 004°31'2 3.4
2017-Sep-21 09:30N 48°20' W 004°29'1 2.0
2017-Sep-21 09:00N 48°20' W 004°28'2 3.1
2017-Sep-21 08:30N 48°19' W 004°28'1 2.6
2017-Sep-21 08:00N 48°18' W 004°26'1 2.8
2017-Sep-21 07:30N 48°18' W 004°24'3 5.2
2017-Sep-21 06:58N 48°19' W 004°20'3 2.8
2017-Sep-21 05:53N 48°16' W 004°16'0 0.0
2017-Sep-20 16:53N 48°16' W 004°16'0 0.0
2017-Sep-20 15:58N 48°16' W 004°16'2 1.6
2017-Sep-20 14:48N 48°18' W 004°17'6 7.5
2017-Sep-20 14:00N 48°19' W 004°26'2 3.0
2017-Sep-20 13:30N 48°19' W 004°28'2 3.3
2017-Sep-20 13:00N 48°21' W 004°28'1 2.9
2017-Sep-20 12:30N 48°22' W 004°29'1 1.7
2017-Sep-20 12:00N 48°23' W 004°30'0 0.0
2017-Sep-20 11:30N 48°23' W 004°30'0 0.0
2017-Sep-20 11:00N 48°23' W 004°30'0 0.0
2017-Sep-20 10:27N 48°23' W 004°30'0 0.0
2017-Sep-20 10:00N 48°23' W 004°30'0 0.0
2017-Sep-20 09:30N 48°23' W 004°30'0 0.0
2017-Sep-20 09:00N 48°23' W 004°30'0 0.0
2017-Sep-20 08:30N 48°23' W 004°30'0 0.0
2017-Sep-20 08:00N 48°23' W 004°30'0 0.0
2017-Sep-20 07:30N 48°23' W 004°30'0 0.0
2017-Sep-20 07:00N 48°23' W 004°30'1 1.9
2017-Sep-20 06:30N 48°22' W 004°29'4 8.5
2017-Sep-20 06:00N 48°18' W 004°30'0 0.4
2017-Sep-20 05:30N 48°18' W 004°30'0 0.0
2017-Sep-20 05:00N 48°18' W 004°30'0 0.0
2017-Sep-20 04:30N 48°18' W 004°30'0 0.0
2017-Sep-20 04:00N 48°18' W 004°30'0 0.0
2017-Sep-20 03:30N 48°18' W 004°30'0 0.0
2017-Sep-20 03:00N 48°18' W 004°30'0 0.0
2017-Sep-20 02:30N 48°18' W 004°30'0 0.0
2017-Sep-20 02:00N 48°18' W 004°30'0 0.0
2017-Sep-20 01:30N 48°18' W 004°30'0 0.0
2017-Sep-20 01:00N 48°18' W 004°30'0 0.0
2017-Sep-20 00:30N 48°18' W 004°30'0 0.0
2017-Sep-20 00:00N 48°18' W 004°30'0 0.0
2017-Sep-19 23:30N 48°18' W 004°30'0 0.0
2017-Sep-19 23:00N 48°18' W 004°30'0 0.0
2017-Sep-19 22:30N 48°18' W 004°30'0 0.0
2017-Sep-19 22:00N 48°18' W 004°30'0 0.0
2017-Sep-19 21:30N 48°18' W 004°30'0 0.0
2017-Sep-19 21:00N 48°18' W 004°30'0 0.0
2017-Sep-19 20:30N 48°18' W 004°30'0 0.0
2017-Sep-19 20:00N 48°18' W 004°30'0 0.0
2017-Sep-19 19:30N 48°18' W 004°30'0 0.0
2017-Sep-19 18:57N 48°18' W 004°30'0 0.0
2017-Sep-19 18:27N 48°18' W 004°30'0 0.0
2017-Sep-19 18:00N 48°18' W 004°30'0 0.0
2017-Sep-19 17:30N 48°18' W 004°30'0 0.0
2017-Sep-19 16:54N 48°18' W 004°30'0 0.0
2017-Sep-19 16:30N 48°18' W 004°30'0 0.0
2017-Sep-19 15:54N 48°18' W 004°30'0 0.0
2017-Sep-19 15:21N 48°18' W 004°30'0 0.0
2017-Sep-19 14:59N 48°18' W 004°30'1 1.8
2017-Sep-19 14:30N 48°18' W 004°29'3 5.5
2017-Sep-19 14:00N 48°21' W 004°31'3 5.1
2017-Sep-19 13:30N 48°20' W 004°35'2 4.2
2017-Sep-19 13:00N 48°18' W 004°37'2 3.9
2017-Sep-19 12:30N 48°17' W 004°38'2 3.8
2017-Sep-19 12:00N 48°15' W 004°37'0 0.2
2017-Sep-19 10:54N 48°15' W 004°37'1 1.0
2017-Sep-19 09:59N 48°14' W 004°37'6 2.6
2017-Sep-19 07:53N 48°10' W 004°32'3 3.5
2017-Sep-19 06:53N 48°13' W 004°29'0 0.0
2017-Sep-19 05:53N 48°13' W 004°29'0 0.0
2017-Sep-19 04:53N 48°13' W 004°29'0 0.0
2017-Sep-19 03:53N 48°13' W 004°29'0 0.0
2017-Sep-19 02:53N 48°13' W 004°29'0 0.0
2017-Sep-19 01:53N 48°13' W 004°29'0 0.0
2017-Sep-19 00:53N 48°13' W 004°29'0 0.0
2017-Sep-18 23:53N 48°13' W 004°29'0 0.0
2017-Sep-18 22:53N 48°13' W 004°29'0 0.0
2017-Sep-18 21:53N 48°13' W 004°29'0 0.0
2017-Sep-18 20:53N 48°13' W 004°29'0 0.0
2017-Sep-18 18:53N 48°13' W 004°29'0 0.0
2017-Sep-18 17:53N 48°13' W 004°29'0 0.0
2017-Sep-18 16:38N 48°13' W 004°29'0 0.0
2017-Sep-18 15:38N 48°13' W 004°29'0 0.1
2017-Sep-18 15:06N 48°13' W 004°29'0 3.7
2017-Sep-18 14:58N 48°14' W 004°29'1 1.9
2017-Sep-18 14:27N 48°13' W 004°29'1 2.2
2017-Sep-18 14:00N 48°12' W 004°28'1 2.3
2017-Sep-18 13:30N 48°11' W 004°29'4 5.8
2017-Sep-18 12:48N 48°10' W 004°35'2 5.2
2017-Sep-18 12:20N 48°12' W 004°37'1 4.6
2017-Sep-18 12:00N 48°13' W 004°38'2 4.1
2017-Sep-18 11:30N 48°15' W 004°39'2 4.4
2017-Sep-18 11:00N 48°17' W 004°39'1 2.8
2017-Sep-18 10:29N 48°18' W 004°37'1 2.0
2017-Sep-18 10:00N 48°19' W 004°37'1 2.9
2017-Sep-18 09:30N 48°20' W 004°35'4 7.1
2017-Sep-18 09:00N 48°22' W 004°31'1 2.8
2017-Sep-18 08:30N 48°23' W 004°30'0 0.0
2017-Sep-18 08:00N 48°23' W 004°30'0 0.0
2017-Sep-18 07:30N 48°23' W 004°30'0 0.0
2017-Sep-18 07:00N 48°23' W 004°30'0 0.0
2017-Sep-18 06:30N 48°23' W 004°30'0 0.0
2017-Sep-18 06:00N 48°23' W 004°30'0 0.0
2017-Sep-16 09:34N 48°23' W 004°30'0 0.1
2017-Sep-16 09:28N 48°23' W 004°30'1 2.2
2017-Sep-16 09:00N 48°22' W 004°29'2 4.9
2017-Sep-16 08:30N 48°21' W 004°32'3 5.0
2017-Sep-16 08:00N 48°19' W 004°35'2 4.8
2017-Sep-16 07:30N 48°17' W 004°37'2 3.6
2017-Sep-16 07:00N 48°18' W 004°35'1 1.8
2017-Sep-16 06:30N 48°17' W 004°36'1 1.1
2017-Sep-16 05:59N 48°17' W 004°35'0 0.0
2017-Sep-16 05:29N 48°17' W 004°35'0 0.0
2017-Sep-16 04:59N 48°17' W 004°35'0 0.0
2017-Sep-16 04:29N 48°17' W 004°35'0 0.0
2017-Sep-16 03:59N 48°17' W 004°35'0 0.0
2017-Sep-16 03:29N 48°17' W 004°35'0 0.0
2017-Sep-16 03:00N 48°17' W 004°35'0 0.0
2017-Sep-16 02:29N 48°17' W 004°35'0 0.0
2017-Sep-16 01:59N 48°17' W 004°35'0 0.0
2017-Sep-16 01:29N 48°17' W 004°35'0 0.0
2017-Sep-16 00:59N 48°17' W 004°35'0 0.0
2017-Sep-16 00:29N 48°17' W 004°35'0 0.0
2017-Sep-15 23:59N 48°17' W 004°35'0 0.0
2017-Sep-15 23:29N 48°17' W 004°35'0 0.0
2017-Sep-15 22:59N 48°17' W 004°35'0 0.0
2017-Sep-15 22:29N 48°17' W 004°35'0 0.0
2017-Sep-15 21:59N 48°17' W 004°35'0 0.0
2017-Sep-15 21:29N 48°17' W 004°35'0 0.0
2017-Sep-15 20:59N 48°17' W 004°35'0 0.0
2017-Sep-15 20:29N 48°17' W 004°35'0 0.0
2017-Sep-15 19:59N 48°17' W 004°35'0 0.0
2017-Sep-15 19:29N 48°17' W 004°35'0 0.0
2017-Sep-15 18:59N 48°17' W 004°35'0 0.0
2017-Sep-15 18:29N 48°17' W 004°35'0 0.0
2017-Sep-15 17:59N 48°17' W 004°35'0 0.0
2017-Sep-15 17:29N 48°17' W 004°35'0 0.0
2017-Sep-15 16:59N 48°17' W 004°35'0 0.0
2017-Sep-15 16:29N 48°17' W 004°35'0 0.0
2017-Sep-15 15:59N 48°17' W 004°35'0 0.6
2017-Sep-15 15:28N 48°17' W 004°35'2 5.3
2017-Sep-15 15:00N 48°20' W 004°35'3 6.4
2017-Sep-15 14:30N 48°21' W 004°31'1 2.8
2017-Sep-15 14:00N 48°20' W 004°31'2 3.8
2017-Sep-15 13:31N 48°20' W 004°28'1 2.4
2017-Sep-15 13:00N 48°19' W 004°27'1 1.6
2017-Sep-15 12:30N 48°19' W 004°27'1 2.4
2017-Sep-15 12:00N 48°19' W 004°25'1 2.3
2017-Sep-15 11:30N 48°18' W 004°25'0 0.2
2017-Sep-15 11:00N 48°18' W 004°25'2 3.0
2017-Sep-15 10:30N 48°19' W 004°26'4 8.1
2017-Sep-15 10:00N 48°22' W 004°29'1 1.5
2017-Sep-15 09:29N 48°23' W 004°30'0 0.0
2017-Sep-15 08:59N 48°23' W 004°30'0 0.0
2017-Sep-15 08:29N 48°23' W 004°30'0 0.0
2017-Sep-15 07:59N 48°23' W 004°30'0 0.0
2017-Sep-15 07:29N 48°23' W 004°30'0 0.0
2017-Sep-15 06:59N 48°23' W 004°30'2 3.4
2017-Sep-15 06:30N 48°21' W 004°29'3 5.2
2017-Sep-15 05:59N 48°20' W 004°26'0 0.1
2017-Sep-15 04:33N 48°20' W 004°26'0 0.1
2017-Sep-15 04:30N 48°20' W 004°26'0 0.0
2017-Sep-15 03:48N 48°20' W 004°26'0 0.0
2017-Sep-15 03:21N 48°20' W 004°26'0 0.0
2017-Sep-15 03:00N 48°20' W 004°26'0 0.0
2017-Sep-15 00:48N 48°20' W 004°26'0 0.0
2017-Sep-14 23:48N 48°20' W 004°26'0 0.0
2017-Sep-14 19:48N 48°20' W 004°26'0 0.0
2017-Sep-14 16:48N 48°20' W 004°26'0 0.0
2017-Sep-14 15:39N 48°20' W 004°26'0 0.2
2017-Sep-14 15:31N 48°20' W 004°26'2 3.8
2017-Sep-14 15:00N 48°19' W 004°29'1 1.9
2017-Sep-14 14:30N 48°20' W 004°30'1 1.3
2017-Sep-14 14:00N 48°19' W 004°30'1 1.9
2017-Sep-14 13:30N 48°19' W 004°29'1 2.4
2017-Sep-14 13:00N 48°19' W 004°27'1 0.3
2017-Sep-14 10:01N 48°20' W 004°26'0 0.6
2017-Sep-14 09:51N 48°20' W 004°26'2 5.8
2017-Sep-14 09:30N 48°18' W 004°28'1 1.5
2017-Sep-14 09:00N 48°19' W 004°27'3 5.4
2017-Sep-14 08:30N 48°21' W 004°30'3 6.3
2017-Sep-14 08:00N 48°20' W 004°34'3 6.1
2017-Sep-14 07:30N 48°17' W 004°35'0 0.3
2017-Sep-14 07:00N 48°17' W 004°35'0 0.0
2017-Sep-14 06:30N 48°17' W 004°35'0 0.0
2017-Sep-14 06:00N 48°17' W 004°35'0 0.0
2017-Sep-14 05:30N 48°17' W 004°35'0 0.0
2017-Sep-14 05:00N 48°17' W 004°35'0 0.0
2017-Sep-14 04:30N 48°17' W 004°35'0 0.0
2017-Sep-14 03:57N 48°17' W 004°35'0 0.0
2017-Sep-14 03:21N 48°17' W 004°35'0 0.0
2017-Sep-14 03:00N 48°17' W 004°35'0 0.0
2017-Sep-14 02:27N 48°17' W 004°35'0 0.0
2017-Sep-14 02:00N 48°17' W 004°35'0 0.0
2017-Sep-14 01:30N 48°17' W 004°35'0 0.0
2017-Sep-14 01:00N 48°17' W 004°35'0 0.0
2017-Sep-14 00:27N 48°17' W 004°35'0 0.0
2017-Sep-13 23:57N 48°17' W 004°35'0 0.0
2017-Sep-13 23:30N 48°17' W 004°35'0 0.0
2017-Sep-13 23:00N 48°17' W 004°35'0 0.0
2017-Sep-13 22:30N 48°17' W 004°35'0 0.0
2017-Sep-13 22:00N 48°17' W 004°35'0 0.0
2017-Sep-13 21:24N 48°17' W 004°35'0 0.0
2017-Sep-13 21:00N 48°17' W 004°35'0 0.0
2017-Sep-13 20:30N 48°17' W 004°35'0 0.0
2017-Sep-13 20:00N 48°17' W 004°35'0 0.0
2017-Sep-13 19:30N 48°17' W 004°35'0 0.0
2017-Sep-13 18:54N 48°17' W 004°35'0 0.0
2017-Sep-13 18:30N 48°17' W 004°35'0 0.0
2017-Sep-13 17:57N 48°17' W 004°35'0 0.0
2017-Sep-13 17:30N 48°17' W 004°35'0 0.0
2017-Sep-13 17:00N 48°17' W 004°35'0 0.0
2017-Sep-13 16:30N 48°17' W 004°35'0 0.0
2017-Sep-13 15:57N 48°17' W 004°35'0 0.0
2017-Sep-13 15:30N 48°17' W 004°35'0 0.6
2017-Sep-13 14:59N 48°17' W 004°35'3 6.5
2017-Sep-13 14:30N 48°20' W 004°34'4 7.0
2017-Sep-13 14:01N 48°20' W 004°29'0 0.9
2017-Sep-13 13:30N 48°20' W 004°28'1 1.8
2017-Sep-13 13:00N 48°20' W 004°30'3 4.7
2017-Sep-13 12:28N 48°23' W 004°29'0 0.9
2017-Sep-13 11:59N 48°23' W 004°30'0 0.0
2017-Sep-13 11:29N 48°23' W 004°30'0 0.0
2017-Sep-12 14:06N 48°23' W 004°30'0 0.0
2017-Sep-12 14:00N 48°23' W 004°30'0 0.0
2017-Sep-12 13:30N 48°23' W 004°30'0 0.0
2017-Sep-12 13:00N 48°23' W 004°30'1 1.8
2017-Sep-12 12:30N 48°22' W 004°29'2 3.2
2017-Sep-12 12:00N 48°20' W 004°29'0 0.4
2017-Sep-12 11:30N 48°21' W 004°29'1 1.6
2017-Sep-12 11:00N 48°21' W 004°29'2 3.6
2017-Sep-12 10:30N 48°20' W 004°28'2 5.0
2017-Sep-12 10:00N 48°18' W 004°26'1 2.7
2017-Sep-12 09:30N 48°19' W 004°25'2 3.1
2017-Sep-12 08:58N 48°18' W 004°23'1 1.3
2017-Sep-12 08:29N 48°18' W 004°23'4 5.1
2017-Sep-12 07:43N 48°18' W 004°17'  

Dump ship's entire track history